首页
METAR-TAF:

METAR-TAF

机场 :

基韋斯特, 佛罗里达州, 美国

纬度: 24-33-13N, 经度: 081-45-13W, 海拔: 1米

当前天气观测

该预报发布于49分钟前的23:53 UTC
风速9节,风向东转东南
温度 31°C
湿度 71%
气压 1017 hPa
能見度: 16.1公里
散云层高于2100英尺

METAR: KEYW 152353Z 12009KT 10SM SCT021 31/25 A3002 RMK AO2 LTG DSNT W AND NW SLP173 T03060250 10328 20306 53012 $

时间: 20:42 (00:42 UTC)

预报

该预报发布于1小时和8分钟前的23:34 UTC
预报有效从16日的 00点(UTC)到 16日的 24点(UTC)
风速9节,风向东转东南
能見度: 10公里
少量云层高于2500英尺
从 16日的 0300点(UTC)
风速9节,风向东转东南
能見度: 10公里
散云层高于2500英尺
附近有阵雨,

TAF: KEYW 152334Z 1600/1624 11009KT P6SM FEW025 FM160300 11009KT P6SM VCSH SCT025

超过4000个机场的气象观测和天气预报(METAR&TAF报告)。

可查询的气象台以黄色和红色小点在地图上表示。

将鼠标移到小点上方,可查看气象台名称。

然后点击查看天气观测和预报。

如需切换地图:点击带黑十字的绿色按钮放大地图;点击带横线的绿色按钮缩小地图;或者点击绿色箭头查看邻近地区的地图。


METAR-TAF: